Aviation Digital Data Service (ADDS)

Output produced by METARs form (2016 UTC 01 August 2015)
found at http://aviationweather.gov/adds/metars/
 
KTOL 011720Z 0118/0218 28010KT P6SM SCT060 
     FM020100 23005KT P6SM SKC 
     FM021500 24010KT P6SM SKC